sensor_id;sensor_type;location;lat;lon;timestamp;pressure;altitude;pressure_sealevel;temperature;humidity
74103;BME280;62853;46.166;3.640;2023-03-01T00:06:26;102925.97;;;-0.35;100.00
74103;BME280;62853;46.166;3.640;2023-03-01T00:33:19;102911.75;;;-0.53;100.00
74103;BME280;62853;46.166;3.640;2023-03-01T00:42:32;102913.25;;;-0.63;100.00
74103;BME280;62853;46.166;3.640;2023-03-01T00:45:40;102927.00;;;-0.65;100.00
74103;BME280;62853;46.166;3.640;2023-03-01T00:51:45;102920.00;;;-0.68;100.00
74103;BME280;62853;46.166;3.640;2023-03-01T00:54:47;102910.34;;;-0.75;100.00
74103;BME280;62853;46.166;3.640;2023-03-01T01:00:48;102903.97;;;-0.88;100.00
74103;BME280;62853;46.166;3.640;2023-03-01T01:07:53;102899.53;;;-0.94;100.00
74103;BME280;62853;46.166;3.640;2023-03-01T01:14:11;102884.72;;;-0.99;100.00
74103;BME280;62853;46.166;3.640;2023-03-01T01:17:44;102894.31;;;-0.95;100.00
74103;BME280;62853;46.166;3.640;2023-03-01T01:31:16;102876.72;;;-1.08;100.00
74103;BME280;62853;46.166;3.640;2023-03-01T01:37:14;102864.56;;;-1.13;100.00
74103;BME280;62853;46.166;3.640;2023-03-01T01:39:43;102856.75;;;-1.14;100.00
74103;BME280;62853;46.166;3.640;2023-03-01T01:46:00;102850.03;;;-1.07;100.00
74103;BME280;62853;46.166;3.640;2023-03-01T01:48:52;102854.47;;;-1.02;100.00
74103;BME280;62853;46.166;3.640;2023-03-01T01:55:30;102836.25;;;-1.08;100.00
74103;BME280;62853;46.166;3.640;2023-03-01T01:58:10;102837.88;;;-1.10;100.00
74103;BME280;62853;46.166;3.640;2023-03-01T02:04:32;102847.97;;;-1.21;100.00
74103;BME280;62853;46.166;3.640;2023-03-01T02:07:29;102827.09;;;-1.27;100.00
74103;BME280;62853;46.166;3.640;2023-03-01T02:10:32;102833.13;;;-1.28;100.00
74103;BME280;62853;46.166;3.640;2023-03-01T02:13:41;102830.56;;;-1.28;100.00
74103;BME280;62853;46.166;3.640;2023-03-01T02:16:15;102825.22;;;-1.34;100.00
74103;BME280;62853;46.166;3.640;2023-03-01T02:19:15;102819.09;;;-1.38;100.00
74103;BME280;62853;46.166;3.640;2023-03-01T02:30:40;102802.59;;;-1.43;100.00
74103;BME280;62853;46.166;3.640;2023-03-01T02:36:40;102803.50;;;-1.41;100.00
74103;BME280;62853;46.166;3.640;2023-03-01T02:42:56;102824.25;;;-1.38;100.00
74103;BME280;62853;46.166;3.640;2023-03-01T02:48:59;102829.28;;;-1.42;100.00
74103;BME280;62853;46.166;3.640;2023-03-01T02:51:59;102810.97;;;-1.52;100.00
74103;BME280;62853;46.166;3.640;2023-03-01T02:55:23;102813.59;;;-1.48;100.00
74103;BME280;62853;46.166;3.640;2023-03-01T02:57:55;102825.72;;;-1.47;100.00
74103;BME280;62853;46.166;3.640;2023-03-01T03:06:57;102821.44;;;-1.45;100.00
74103;BME280;62853;46.166;3.640;2023-03-01T03:15:59;102806.50;;;-1.57;100.00
74103;BME280;62853;46.166;3.640;2023-03-01T03:18:50;102809.97;;;-1.57;100.00
74103;BME280;62853;46.166;3.640;2023-03-01T03:21:26;102821.25;;;-1.53;100.00
74103;BME280;62853;46.166;3.640;2023-03-01T03:24:14;102813.47;;;-1.55;100.00
74103;BME280;62853;46.166;3.640;2023-03-01T03:26:50;102809.94;;;-1.58;100.00
74103;BME280;62853;46.166;3.640;2023-03-01T03:29:21;102809.97;;;-1.55;100.00
74103;BME280;62853;46.166;3.640;2023-03-01T03:31:49;102803.00;;;-1.59;100.00
74103;BME280;62853;46.166;3.640;2023-03-01T03:34:19;102813.50;;;-1.53;100.00
74103;BME280;62853;46.166;3.640;2023-03-01T03:36:55;102800.31;;;-1.62;100.00
74103;BME280;62853;46.166;3.640;2023-03-01T03:39:29;102804.56;;;-1.64;100.00
74103;BME280;62853;46.166;3.640;2023-03-01T03:42:05;102825.53;;;-1.54;100.00
74103;BME280;62853;46.166;3.640;2023-03-01T03:44:33;102807.34;;;-1.58;100.00
74103;BME280;62853;46.166;3.640;2023-03-01T03:47:32;102802.84;;;-1.64;100.00
74103;BME280;62853;46.166;3.640;2023-03-01T03:54:05;102794.03;;;-1.72;100.00
74103;BME280;62853;46.166;3.640;2023-03-01T03:56:45;102804.53;;;-1.66;100.00
74103;BME280;62853;46.166;3.640;2023-03-01T03:59:45;102811.38;;;-1.68;100.00
74103;BME280;62853;46.166;3.640;2023-03-01T04:05:52;102804.28;;;-1.75;100.00
74103;BME280;62853;46.166;3.640;2023-03-01T04:08:50;102785.13;;;-1.83;100.00
74103;BME280;62853;46.166;3.640;2023-03-01T04:11:47;102784.41;;;-1.78;100.00
74103;BME280;62853;46.166;3.640;2023-03-01T04:14:21;102774.78;;;-1.83;100.00
74103;BME280;62853;46.166;3.640;2023-03-01T04:17:08;102775.56;;;-1.86;100.00
74103;BME280;62853;46.166;3.640;2023-03-01T04:20:24;102785.22;;;-1.80;100.00
74103;BME280;62853;46.166;3.640;2023-03-01T04:23:10;102786.22;;;-1.75;100.00
74103;BME280;62853;46.166;3.640;2023-03-01T04:25:51;102773.03;;;-1.84;100.00
74103;BME280;62853;46.166;3.640;2023-03-01T04:28:53;102776.47;;;-1.85;100.00
74103;BME280;62853;46.166;3.640;2023-03-01T04:31:22;102777.28;;;-1.87;100.00
74103;BME280;62853;46.166;3.640;2023-03-01T04:34:10;102785.16;;;-1.82;100.00
74103;BME280;62853;46.166;3.640;2023-03-01T04:36:46;102764.16;;;-1.94;100.00
74103;BME280;62853;46.166;3.640;2023-03-01T04:42:25;102779.00;;;-1.87;100.00
74103;BME280;62853;46.166;3.640;2023-03-01T04:44:50;102752.81;;;-1.99;100.00
74103;BME280;62853;46.166;3.640;2023-03-01T04:47:31;102755.34;;;-2.01;100.00
74103;BME280;62853;46.166;3.640;2023-03-01T04:53:13;102750.22;;;-1.99;100.00
74103;BME280;62853;46.166;3.640;2023-03-01T04:56:05;102742.28;;;-2.07;100.00
74103;BME280;62853;46.166;3.640;2023-03-01T04:58:47;102748.28;;;-2.08;100.00
74103;BME280;62853;46.166;3.640;2023-03-01T05:01:22;102754.38;;;-2.04;100.00
74103;BME280;62853;46.166;3.640;2023-03-01T05:07:36;102746.56;;;-2.08;100.00
74103;BME280;62853;46.166;3.640;2023-03-01T05:10:21;102755.28;;;-2.04;100.00
74103;BME280;62853;46.166;3.640;2023-03-01T05:13:18;102777.94;;;-1.94;100.00
74103;BME280;62853;46.166;3.640;2023-03-01T05:16:17;102753.47;;;-2.07;100.00
74103;BME280;62853;46.166;3.640;2023-03-01T05:22:11;102756.94;;;-2.06;100.00
74103;BME280;62853;46.166;3.640;2023-03-01T05:24:48;102733.50;;;-2.14;100.00
74103;BME280;62853;46.166;3.640;2023-03-01T05:30:18;102737.03;;;-2.10;100.00
74103;BME280;62853;46.166;3.640;2023-03-01T05:32:49;102733.59;;;-2.11;100.00
74103;BME280;62853;46.166;3.640;2023-03-01T05:35:29;102737.13;;;-2.07;100.00
74103;BME280;62853;46.166;3.640;2023-03-01T05:38:20;102725.03;;;-2.08;100.00
74103;BME280;62853;46.166;3.640;2023-03-01T05:43:32;102719.69;;;-2.14;100.00
74103;BME280;62853;46.166;3.640;2023-03-01T05:46:22;102717.09;;;-2.14;100.00
74103;BME280;62853;46.166;3.640;2023-03-01T05:49:24;102728.44;;;-2.09;100.00
74103;BME280;62853;46.166;3.640;2023-03-01T05:52:00;102718.91;;;-2.12;100.00
74103;BME280;62853;46.166;3.640;2023-03-01T05:57:51;102720.63;;;-2.12;100.00
74103;BME280;62853;46.166;3.640;2023-03-01T06:00:52;102712.00;;;-2.13;100.00
74103;BME280;62853;46.166;3.640;2023-03-01T06:03:41;102702.59;;;-2.11;100.00
74103;BME280;62853;46.166;3.640;2023-03-01T06:06:32;102708.69;;;-2.09;100.00
74103;BME280;62853;46.166;3.640;2023-03-01T06:09:08;102708.69;;;-2.09;100.00
74103;BME280;62853;46.166;3.640;2023-03-01T06:14:58;102713.75;;;-2.12;100.00
74103;BME280;62853;46.166;3.640;2023-03-01T06:17:32;102721.44;;;-2.13;100.00
74103;BME280;62853;46.166;3.640;2023-03-01T06:23:08;102724.94;;;-2.11;100.00
74103;BME280;62853;46.166;3.640;2023-03-01T06:25:34;102725.84;;;-2.11;100.00
74103;BME280;62853;46.166;3.640;2023-03-01T06:28:07;102710.94;;;-2.19;100.00
74103;BME280;62853;46.166;3.640;2023-03-01T06:30:53;102719.69;;;-2.14;100.00
74103;BME280;62853;46.166;3.640;2023-03-01T06:33:35;102716.28;;;-2.13;100.00
74103;BME280;62853;46.166;3.640;2023-03-01T06:36:14;102716.28;;;-2.13;100.00
74103;BME280;62853;46.166;3.640;2023-03-01T06:39:03;102732.25;;;-1.96;100.00
74103;BME280;62853;46.166;3.640;2023-03-01T06:41:38;102720.19;;;-1.97;100.00
74103;BME280;62853;46.166;3.640;2023-03-01T06:44:06;102724.53;;;-1.95;100.00
74103;BME280;62853;46.166;3.640;2023-03-01T06:46:36;102724.63;;;-1.92;100.00
74103;BME280;62853;46.166;3.640;2023-03-01T06:49:07;102730.75;;;-1.88;100.00
74103;BME280;62853;46.166;3.640;2023-03-01T06:51:37;102721.28;;;-1.88;100.00
74103;BME280;62853;46.166;3.640;2023-03-01T06:54:23;102720.47;;;-1.87;100.00
74103;BME280;62853;46.166;3.640;2023-03-01T06:56:51;102728.38;;;-1.80;100.00
74103;BME280;62853;46.166;3.640;2023-03-01T06:59:26;102709.28;;;-1.87;100.00
74103;BME280;62853;46.166;3.640;2023-03-01T07:01:53;102698.16;;;-1.83;100.00
74103;BME280;62853;46.166;3.640;2023-03-01T07:04:22;102711.31;;;-1.75;100.00
74103;BME280;62853;46.166;3.640;2023-03-01T07:06:47;102702.69;;;-1.74;100.00
74103;BME280;62853;46.166;3.640;2023-03-01T07:09:24;102714.19;;;-1.63;100.00
74103;BME280;62853;46.166;3.640;2023-03-01T07:11:50;102705.53;;;-1.65;100.00
74103;BME280;62853;46.166;3.640;2023-03-01T07:14:16;102715.97;;;-1.60;100.00
74103;BME280;62853;46.166;3.640;2023-03-01T07:16:41;102728.22;;;-1.53;100.00
74103;BME280;62853;46.166;3.640;2023-03-01T07:19:17;102728.31;;;-1.48;100.00
74103;BME280;62853;46.166;3.640;2023-03-01T07:21:42;102732.91;;;-1.38;100.00
74103;BME280;62853;46.166;3.640;2023-03-01T07:24:08;102726.84;;;-1.39;100.00
74103;BME280;62853;46.166;3.640;2023-03-01T07:26:34;102737.44;;;-1.29;100.00
74103;BME280;62853;46.166;3.640;2023-03-01T07:29:01;102736.59;;;-1.28;100.00
74103;BME280;62853;46.166;3.640;2023-03-01T07:31:26;102741.06;;;-1.23;100.00
74103;BME280;62853;46.166;3.640;2023-03-01T07:33:59;102730.69;;;-1.24;100.00
74103;BME280;62853;46.166;3.640;2023-03-01T07:36:25;102733.34;;;-1.21;100.00
74103;BME280;62853;46.166;3.640;2023-03-01T07:38:53;102739.59;;;-1.12;100.00
74103;BME280;62853;46.166;3.640;2023-03-01T07:41:20;102731.00;;;-1.10;100.00
74103;BME280;62853;46.166;3.640;2023-03-01T07:43:46;102739.78;;;-1.04;100.00
74103;BME280;62853;46.166;3.640;2023-03-01T07:46:16;102739.94;;;-0.98;100.00
74103;BME280;62853;46.166;3.640;2023-03-01T07:48:43;102740.91;;;-0.92;100.00
74103;BME280;62853;46.166;3.640;2023-03-01T07:51:09;102736.63;;;-0.92;100.00
74103;BME280;62853;46.166;3.640;2023-03-01T07:53:45;102737.78;;;-0.79;100.00
74103;BME280;62853;46.166;3.640;2023-03-01T07:56:14;102738.81;;;-0.71;100.00
74103;BME280;62853;46.166;3.640;2023-03-01T07:58:45;102726.69;;;-0.73;100.00
74103;BME280;62853;46.166;3.640;2023-03-01T08:01:14;102735.53;;;-0.64;100.00
74103;BME280;62853;46.166;3.640;2023-03-01T08:03:43;102735.56;;;-0.62;100.00
74103;BME280;62853;46.166;3.640;2023-03-01T08:06:17;102735.69;;;-0.56;100.00
74103;BME280;62853;46.166;3.640;2023-03-01T08:08:49;102746.22;;;-0.48;100.00
74103;BME280;62853;46.166;3.640;2023-03-01T08:11:22;102746.44;;;-0.38;100.00
74103;BME280;62853;46.166;3.640;2023-03-01T08:13:55;102728.50;;;-0.30;100.00
74103;BME280;62853;46.166;3.640;2023-03-01T08:16:31;102732.47;;;-0.03;100.00
74103;BME280;62853;46.166;3.640;2023-03-01T08:19:23;102718.53;;;0.88;100.00
74103;BME280;62853;46.166;3.640;2023-03-01T08:21:49;102731.38;;;2.10;100.00
74103;BME280;62853;46.166;3.640;2023-03-01T08:24:17;102715.06;;;3.35;100.00
74103;BME280;62853;46.166;3.640;2023-03-01T08:26:45;102726.69;;;4.32;100.00
74103;BME280;62853;46.166;3.640;2023-03-01T08:29:15;102730.19;;;5.14;100.00
74103;BME280;62853;46.166;3.640;2023-03-01T08:31:48;102717.03;;;5.55;100.00
74103;BME280;62853;46.166;3.640;2023-03-01T08:34:16;102715.19;;;5.77;100.00
74103;BME280;62853;46.166;3.640;2023-03-01T08:36:45;102709.19;;;5.46;100.00
74103;BME280;62853;46.166;3.640;2023-03-01T08:39:33;102713.69;;;4.70;100.00
74103;BME280;62853;46.166;3.640;2023-03-01T08:42:03;102717.97;;;4.02;100.00
74103;BME280;62853;46.166;3.640;2023-03-01T08:44:34;102717.84;;;3.72;100.00
74103;BME280;62853;46.166;3.640;2023-03-01T08:47:02;102708.34;;;3.84;100.00
74103;BME280;62853;46.166;3.640;2023-03-01T08:49:38;102704.97;;;4.28;100.00
74103;BME280;62853;46.166;3.640;2023-03-01T08:52:21;102691.06;;;4.74;100.00
74103;BME280;62853;46.166;3.640;2023-03-01T08:54:48;102696.28;;;4.80;100.00
74103;BME280;62853;46.166;3.640;2023-03-01T08:57:43;102690.22;;;4.65;100.00
74103;BME280;62853;46.166;3.640;2023-03-01T09:00:09;102698.88;;;5.00;99.08
74103;BME280;62853;46.166;3.640;2023-03-01T09:02:38;102694.47;;;5.28;100.00
74103;BME280;62853;46.166;3.640;2023-03-01T09:05:04;102691.81;;;5.37;100.00
74103;BME280;62853;46.166;3.640;2023-03-01T09:07:32;102693.34;;;5.85;100.00
74103;BME280;62853;46.166;3.640;2023-03-01T09:09:57;102683.50;;;6.35;100.00
74103;BME280;62853;46.166;3.640;2023-03-01T09:12:23;102683.72;;;5.94;100.00
74103;BME280;62853;46.166;3.640;2023-03-01T09:14:52;102680.59;;;5.01;98.77
74103;BME280;62853;46.166;3.640;2023-03-01T09:17:20;102696.28;;;4.44;100.00
74103;BME280;62853;46.166;3.640;2023-03-01T09:19:48;102685.78;;;3.98;100.00
74103;BME280;62853;46.166;3.640;2023-03-01T09:22:21;102677.84;;;3.57;100.00
74103;BME280;62853;46.166;3.640;2023-03-01T09:25:07;102678.50;;;3.19;100.00
74103;BME280;62853;46.166;3.640;2023-03-01T09:27:42;102675.75;;;2.91;100.00
74103;BME280;62853;46.166;3.640;2023-03-01T09:33:02;102672.66;;;5.35;100.00
74103;BME280;62853;46.166;3.640;2023-03-01T09:38:59;102667.81;;;6.28;100.00
74103;BME280;62853;46.166;3.640;2023-03-01T09:42:03;102667.00;;;7.18;100.00
74103;BME280;62853;46.166;3.640;2023-03-01T09:44:49;102661.16;;;8.26;100.00
74103;BME280;62853;46.166;3.640;2023-03-01T09:47:34;102634.25;;;8.68;78.20
74103;BME280;62853;46.166;3.640;2023-03-01T09:56:32;102625.84;;;7.93;100.00
74103;BME280;62853;46.166;3.640;2023-03-01T10:02:29;102633.66;;;7.32;100.00
74103;BME280;62853;46.166;3.640;2023-03-01T10:08:28;102630.16;;;7.30;91.15
74103;BME280;62853;46.166;3.640;2023-03-01T10:11:02;102613.84;;;7.06;79.73
74103;BME280;62853;46.166;3.640;2023-03-01T10:23:10;102600.81;;;7.69;95.69
74103;BME280;62853;46.166;3.640;2023-03-01T10:29:14;102588.59;;;9.19;61.75
74103;BME280;62853;46.166;3.640;2023-03-01T10:31:53;102572.56;;;9.31;66.92
74103;BME280;62853;46.166;3.640;2023-03-01T10:34:49;102575.19;;;8.89;77.38
74103;BME280;62853;46.166;3.640;2023-03-01T10:44:58;102570.56;;;8.02;100.00
74103;BME280;62853;46.166;3.640;2023-03-01T10:51:23;102573.63;;;7.76;100.00
74103;BME280;62853;46.166;3.640;2023-03-01T10:57:37;102575.06;;;6.62;100.00
74103;BME280;62853;46.166;3.640;2023-03-01T11:00:20;102586.69;;;6.33;84.38
74103;BME280;62853;46.166;3.640;2023-03-01T11:06:31;102562.63;;;5.83;100.00
74103;BME280;62853;46.166;3.640;2023-03-01T11:09:35;102563.56;;;5.70;100.00
74103;BME280;62853;46.166;3.640;2023-03-01T11:16:07;102576.66;;;5.68;88.74
74103;BME280;62853;46.166;3.640;2023-03-01T11:26:37;102567.09;;;5.67;100.00
74103;BME280;62853;46.166;3.640;2023-03-01T11:29:28;102571.47;;;5.67;84.81
74103;BME280;62853;46.166;3.640;2023-03-01T11:44:47;102552.16;;;5.80;100.00
74103;BME280;62853;46.166;3.640;2023-03-01T11:54:32;102537.34;;;5.85;96.05
74103;BME280;62853;46.166;3.640;2023-03-01T12:13:02;102523.34;;;5.92;93.58
74103;BME280;62853;46.166;3.640;2023-03-01T12:24:52;102512.81;;;6.02;76.08
74103;BME280;62853;46.166;3.640;2023-03-01T12:45:54;102484.56;;;6.38;82.59
74103;BME280;62853;46.166;3.640;2023-03-01T13:30:44;102431.91;;;6.62;65.52
74103;BME280;62853;46.166;3.640;2023-03-01T13:42:41;102389.13;;;6.65;62.90
74103;BME280;62853;46.166;3.640;2023-03-01T13:45:25;102390.88;;;6.64;65.89
74103;BME280;62853;46.166;3.640;2023-03-01T13:48:15;102373.41;;;6.66;71.44
74103;BME280;62853;46.166;3.640;2023-03-01T13:51:29;102388.06;;;6.80;63.75
74103;BME280;62853;46.166;3.640;2023-03-01T13:54:46;102381.91;;;6.82;64.89
74103;BME280;62853;46.166;3.640;2023-03-01T14:10:11;102367.13;;;6.80;67.82
74103;BME280;62853;46.166;3.640;2023-03-01T14:22:10;102356.84;;;6.64;64.63
74103;BME280;62853;46.166;3.640;2023-03-01T14:24:59;102357.69;;;6.68;64.54
74103;BME280;62853;46.166;3.640;2023-03-01T14:48:20;102343.88;;;6.57;73.99
74103;BME280;62853;46.166;3.640;2023-03-01T14:51:14;102315.13;;;6.52;72.43
74103;BME280;62853;46.166;3.640;2023-03-01T14:54:02;102314.22;;;6.55;74.57
74103;BME280;62853;46.166;3.640;2023-03-01T14:57:16;102309.94;;;6.49;71.08
74103;BME280;62853;46.166;3.640;2023-03-01T15:11:24;102311.63;;;6.53;65.98
74103;BME280;62853;46.166;3.640;2023-03-01T15:14:50;102301.25;;;6.47;71.27
74103;BME280;62853;46.166;3.640;2023-03-01T15:18:03;102292.72;;;6.32;60.86
74103;BME280;62853;46.166;3.640;2023-03-01T15:23:54;102298.84;;;6.31;62.23
74103;BME280;62853;46.166;3.640;2023-03-01T15:26:30;102296.25;;;6.28;63.06
74103;BME280;62853;46.166;3.640;2023-03-01T15:29:18;102298.91;;;6.27;62.88
74103;BME280;62853;46.166;3.640;2023-03-01T15:34:47;102304.06;;;6.31;67.91
74103;BME280;62853;46.166;3.640;2023-03-01T15:41:21;102277.25;;;6.16;67.42
74103;BME280;62853;46.166;3.640;2023-03-01T15:43:52;102287.66;;;6.19;67.57
74103;BME280;62853;46.166;3.640;2023-03-01T15:46:26;102292.81;;;6.26;72.09
74103;BME280;62853;46.166;3.640;2023-03-01T15:48:59;102285.97;;;6.16;64.22
74103;BME280;62853;46.166;3.640;2023-03-01T15:51:40;102289.44;;;6.18;65.86
74103;BME280;62853;46.166;3.640;2023-03-01T15:54:17;102285.13;;;6.16;76.00
74103;BME280;62853;46.166;3.640;2023-03-01T15:56:43;102277.28;;;6.14;67.42
74103;BME280;62853;46.166;3.640;2023-03-01T15:59:15;102279.03;;;6.12;62.40
74103;BME280;62853;46.166;3.640;2023-03-01T16:09:11;102290.44;;;6.06;63.33
74103;BME280;62853;46.166;3.640;2023-03-01T16:12:18;102283.53;;;6.04;63.33
74103;BME280;62853;46.166;3.640;2023-03-01T16:15:12;102263.59;;;5.90;60.46
74103;BME280;62853;46.166;3.640;2023-03-01T16:18:03;102262.81;;;5.82;68.87
74103;BME280;62853;46.166;3.640;2023-03-01T16:23:21;102269.06;;;5.72;62.77
74103;BME280;62853;46.166;3.640;2023-03-01T16:26:27;102251.81;;;5.55;60.29
74103;BME280;62853;46.166;3.640;2023-03-01T16:29:23;102249.22;;;5.52;58.69
74103;BME280;62853;46.166;3.640;2023-03-01T16:32:22;102253.63;;;5.47;66.75
74103;BME280;62853;46.166;3.640;2023-03-01T16:38:02;102243.34;;;5.33;69.91
74103;BME280;62853;46.166;3.640;2023-03-01T16:51:00;102274.78;;;5.21;72.75
74103;BME280;62853;46.166;3.640;2023-03-01T16:54:01;102258.41;;;5.05;65.59
74103;BME280;62853;46.166;3.640;2023-03-01T17:06:41;102269.84;;;4.85;78.00
74103;BME280;62853;46.166;3.640;2023-03-01T17:10:02;102258.66;;;4.74;74.60
74103;BME280;62853;46.166;3.640;2023-03-01T17:12:29;102263.91;;;4.68;77.26
74103;BME280;62853;46.166;3.640;2023-03-01T17:14:57;102263.94;;;4.62;77.20
74103;BME280;62853;46.166;3.640;2023-03-01T17:17:49;102248.38;;;4.54;81.97
74103;BME280;62853;46.166;3.640;2023-03-01T17:20:27;102268.31;;;4.61;76.87
74103;BME280;62853;46.166;3.640;2023-03-01T17:23:02;102263.19;;;4.51;85.15
74103;BME280;62853;46.166;3.640;2023-03-01T17:26:04;102266.69;;;4.43;75.05
74103;BME280;62853;46.166;3.640;2023-03-01T17:28:50;102269.34;;;4.40;80.64
74103;BME280;62853;46.166;3.640;2023-03-01T17:31:19;102284.94;;;4.43;81.55
74103;BME280;62853;46.166;3.640;2023-03-01T17:34:24;102263.31;;;4.29;78.42
74103;BME280;62853;46.166;3.640;2023-03-01T17:37:02;102274.59;;;4.26;75.53
74103;BME280;62853;46.166;3.640;2023-03-01T17:39:53;102284.19;;;4.21;85.43
74103;BME280;62853;46.166;3.640;2023-03-01T17:42:27;102279.03;;;4.18;86.72
74103;BME280;62853;46.166;3.640;2023-03-01T17:44:56;102267.75;;;4.08;83.89
74103;BME280;62853;46.166;3.640;2023-03-01T17:47:44;102291.22;;;4.12;81.79
74103;BME280;62853;46.166;3.640;2023-03-01T17:50:28;102283.41;;;4.01;86.24
74103;BME280;62853;46.166;3.640;2023-03-01T17:53:19;102295.63;;;3.96;79.70
74103;BME280;62853;46.166;3.640;2023-03-01T17:56:11;102287.81;;;3.91;82.29
74103;BME280;62853;46.166;3.640;2023-03-01T18:02:04;102283.47;;;3.93;93.82
74103;BME280;62853;46.166;3.640;2023-03-01T18:04:55;102282.59;;;3.91;91.14
74103;BME280;62853;46.166;3.640;2023-03-01T18:11:03;102296.50;;;3.87;94.12
74103;BME280;62853;46.166;3.640;2023-03-01T18:13:55;102306.94;;;3.84;98.14
74103;BME280;62853;46.166;3.640;2023-03-01T18:16:25;102292.22;;;3.73;94.25
74103;BME280;62853;46.166;3.640;2023-03-01T18:18:56;102303.53;;;3.69;97.07
74103;BME280;62853;46.166;3.640;2023-03-01T18:21:34;102297.47;;;3.64;95.58
74103;BME280;62853;46.166;3.640;2023-03-01T18:24:28;102313.91;;;3.74;99.07
74103;BME280;62853;46.166;3.640;2023-03-01T18:27:13;102309.59;;;3.71;100.00
74103;BME280;62853;46.166;3.640;2023-03-01T18:29:56;102307.88;;;3.60;100.00
74103;BME280;62853;46.166;3.640;2023-03-01T18:32:49;102298.34;;;3.52;100.00
74103;BME280;62853;46.166;3.640;2023-03-01T18:35:35;102293.16;;;3.51;100.00
74103;BME280;62853;46.166;3.640;2023-03-01T18:38:24;102303.53;;;3.54;95.43
74103;BME280;62853;46.166;3.640;2023-03-01T18:44:15;102284.47;;;3.43;100.00
74103;BME280;62853;46.166;3.640;2023-03-01T18:47:00;102273.22;;;3.39;100.00
74103;BME280;62853;46.166;3.640;2023-03-01T18:50:09;102269.72;;;3.35;100.00
74103;BME280;62853;46.166;3.640;2023-03-01T18:52:40;102275.81;;;3.38;100.00
74103;BME280;62853;46.166;3.640;2023-03-01T18:55:28;102276.66;;;3.35;100.00
74103;BME280;62853;46.166;3.640;2023-03-01T18:58:04;102265.38;;;3.30;100.00
74103;BME280;62853;46.166;3.640;2023-03-01T19:01:00;102272.34;;;3.28;95.00
74103;BME280;62853;46.166;3.640;2023-03-01T19:03:51;102266.28;;;3.23;100.00
74103;BME280;62853;46.166;3.640;2023-03-01T19:07:06;102268.00;;;3.24;100.00
74103;BME280;62853;46.166;3.640;2023-03-01T19:10:15;102268.03;;;3.19;100.00
74103;BME280;62853;46.166;3.640;2023-03-01T19:13:29;102266.31;;;3.10;96.24
74103;BME280;62853;46.166;3.640;2023-03-01T19:26:26;102275.84;;;2.87;100.00
74103;BME280;62853;46.166;3.640;2023-03-01T19:29:23;102284.53;;;2.90;100.00
74103;BME280;62853;46.166;3.640;2023-03-01T19:38:41;102268.00;;;2.64;100.00
74103;BME280;62853;46.166;3.640;2023-03-01T19:58:53;102267.97;;;2.42;100.00
74103;BME280;62853;46.166;3.640;2023-03-01T20:05:14;102274.00;;;2.30;100.00
74103;BME280;62853;46.166;3.640;2023-03-01T20:11:57;102286.09;;;2.19;100.00
74103;BME280;62853;46.166;3.640;2023-03-01T20:21:43;102282.63;;;2.12;100.00
74103;BME280;62853;46.166;3.640;2023-03-01T20:27:37;102280.03;;;2.15;100.00
74103;BME280;62853;46.166;3.640;2023-03-01T20:30:19;102273.09;;;2.16;100.00
74103;BME280;62853;46.166;3.640;2023-03-01T20:36:46;102269.66;;;2.18;100.00
74103;BME280;62853;46.166;3.640;2023-03-01T20:40:37;102264.44;;;2.18;100.00
74103;BME280;62853;46.166;3.640;2023-03-01T20:46:49;102273.09;;;2.16;100.00
74103;BME280;62853;46.166;3.640;2023-03-01T20:49:48;102277.47;;;2.21;100.00
74103;BME280;62853;46.166;3.640;2023-03-01T20:52:40;102265.31;;;2.14;100.00
74103;BME280;62853;46.166;3.640;2023-03-01T20:55:43;102258.34;;;2.09;100.00
74103;BME280;62853;46.166;3.640;2023-03-01T21:05:20;102281.75;;;2.12;100.00
74103;BME280;62853;46.166;3.640;2023-03-01T21:11:02;102280.88;;;2.05;100.00
74103;BME280;62853;46.166;3.640;2023-03-01T21:13:31;102260.03;;;1.99;100.00
74103;BME280;62853;46.166;3.640;2023-03-01T21:16:06;102256.59;;;1.98;100.00
74103;BME280;62853;46.166;3.640;2023-03-01T21:18:45;102259.16;;;1.95;100.00
74103;BME280;62853;46.166;3.640;2023-03-01T21:21:26;102264.38;;;1.97;100.00
74103;BME280;62853;46.166;3.640;2023-03-01T21:24:22;102260.91;;;1.96;100.00
74103;BME280;62853;46.166;3.640;2023-03-01T21:26:58;102247.03;;;1.93;100.00
74103;BME280;62853;46.166;3.640;2023-03-01T21:29:47;102263.53;;;1.98;100.00
74103;BME280;62853;46.166;3.640;2023-03-01T21:32:32;102234.00;;;1.85;100.00
74103;BME280;62853;46.166;3.640;2023-03-01T21:38:28;102240.97;;;1.94;100.00
74103;BME280;62853;46.166;3.640;2023-03-01T21:41:32;102240.09;;;1.90;100.00
74103;BME280;62853;46.166;3.640;2023-03-01T21:44:01;102231.41;;;1.82;100.00
74103;BME280;62853;46.166;3.640;2023-03-01T21:46:48;102243.53;;;1.83;100.00
74103;BME280;62853;46.166;3.640;2023-03-01T21:49:35;102245.22;;;1.75;100.00
74103;BME280;62853;46.166;3.640;2023-03-01T21:55:50;102236.53;;;1.66;100.00
74103;BME280;62853;46.166;3.640;2023-03-01T21:58:48;102244.34;;;1.70;100.00
74103;BME280;62853;46.166;3.640;2023-03-01T22:01:35;102245.19;;;1.62;100.00
74103;BME280;62853;46.166;3.640;2023-03-01T22:04:18;102254.75;;;1.71;100.00
74103;BME280;62853;46.166;3.640;2023-03-01T22:06:47;102253.84;;;1.67;100.00
74103;BME280;62853;46.166;3.640;2023-03-01T22:09:29;102253.78;;;1.58;100.00
74103;BME280;62853;46.166;3.640;2023-03-01T22:12:14;102233.00;;;1.52;100.00
74103;BME280;62853;46.166;3.640;2023-03-01T22:15:10;102239.94;;;1.55;100.00
74103;BME280;62853;46.166;3.640;2023-03-01T22:18:26;102239.91;;;1.52;100.00
74103;BME280;62853;46.166;3.640;2023-03-01T22:21:23;102261.59;;;1.58;100.00
74103;BME280;62853;46.166;3.640;2023-03-01T22:28:30;102263.28;;;1.50;100.00
74103;BME280;62853;46.166;3.640;2023-03-01T22:35:24;102267.56;;;1.42;100.00
74103;BME280;62853;46.166;3.640;2023-03-01T22:48:56;102260.56;;;1.27;100.00